Time;durP1;ratioP1;P1;durP2;ratioP2;P2;SDS_P1;SDS_P2;PMS_P1;PMS_P2;Temp;Humidity;BMP_temperature;BMP_pressure;BME280_temperature;BME280_humidity;BME280_pressure;Samples;Min_cycle;Max_cycle;Signal;HPM_P1;HPM_P2
2021/03/06 00:01:00;;;;;;;15.25;2.70;;;0.70;99.90;;;;;;5083733;28;20054;-83
2021/03/06 00:03:26;;;;;;;6.43;1.90;;;0.70;99.90;;;;;;5077156;28;20122;-82
2021/03/06 00:05:52;;;;;;;13.00;2.25;;;0.60;99.90;;;;;;5093665;28;20062;-83
2021/03/06 00:08:19;;;;;;;14.15;2.00;;;0.60;99.90;;;;;;5090722;28;20035;-85
2021/03/06 00:10:45;;;;;;;15.93;2.72;;;0.60;99.90;;;;;;5093797;28;20657;-83
2021/03/06 00:13:11;;;;;;;8.73;1.92;;;0.50;99.90;;;;;;5093761;28;20047;-83
2021/03/06 00:15:37;;;;;;;14.90;1.85;;;0.50;99.90;;;;;;5075447;28;20035;-83
2021/03/06 00:18:03;;;;;;;17.05;3.10;;;0.50;99.90;;;;;;5109947;28;20051;-85
2021/03/06 00:20:28;;;;;;;8.90;1.60;;;0.40;99.90;;;;;;5092809;28;20032;-83
2021/03/06 00:22:54;;;;;;;18.02;2.22;;;0.40;99.90;;;;;;5093321;28;20043;-83
2021/03/06 00:25:21;;;;;;;14.13;2.55;;;0.30;99.90;;;;;;5075792;28;20048;-83
2021/03/06 00:27:46;;;;;;;12.80;2.60;;;0.40;99.90;;;;;;5069165;28;20055;-84
2021/03/06 00:30:17;;;;;;;13.65;2.88;;;0.40;99.90;;;;;;5111518;28;20118;-83
2021/03/06 00:32:43;;;;;;;;;;;0.40;99.90;;;;;;5088507;28;20048;-83
2021/03/06 00:35:10;;;;;;;19.50;2.72;;;0.40;99.90;;;;;;5097879;28;19920;-83
2021/03/06 00:37:36;;;;;;;14.82;2.75;;;0.40;99.90;;;;;;5109897;28;20110;-84
2021/03/06 00:40:05;;;;;;;14.70;2.85;;;0.40;99.90;;;;;;5110217;28;20501;-83
2021/03/06 00:42:31;;;;;;;17.08;2.75;;;0.50;99.90;;;;;;5110235;28;20130;-84
2021/03/06 00:44:56;;;;;;;15.85;2.63;;;0.50;99.90;;;;;;5076176;28;20463;-82
2021/03/06 00:47:22;;;;;;;15.73;3.83;;;0.50;99.90;;;;;;5091841;28;20108;-82
2021/03/06 00:49:48;;;;;;;14.98;2.70;;;0.50;99.90;;;;;;5110776;28;20126;-82
2021/03/06 00:52:14;;;;;;;24.25;3.67;;;0.60;99.90;;;;;;5092767;28;20123;-84
2021/03/06 00:54:40;;;;;;;14.82;2.90;;;0.70;99.90;;;;;;5091790;28;20350;-82
2021/03/06 00:57:06;;;;;;;12.30;2.15;;;0.70;99.90;;;;;;5092698;28;20112;-82
2021/03/06 00:59:32;;;;;;;20.67;3.17;;;0.70;99.90;;;;;;5075178;28;20444;-82
2021/03/06 01:01:58;;;;;;;7.93;1.85;;;0.70;99.90;;;;;;5090152;28;20071;-82
2021/03/06 01:04:24;;;;;;;12.50;2.53;;;0.70;99.90;;;;;;5090315;28;20487;-82
2021/03/06 01:06:50;;;;;;;20.48;4.72;;;0.80;99.90;;;;;;5110499;28;20040;-82
2021/03/06 01:09:15;;;;;;;22.25;2.78;;;0.80;99.90;;;;;;5091074;28;20048;-82
2021/03/06 01:11:41;;;;;;;17.58;2.75;;;0.80;99.90;;;;;;5075096;28;20600;-82
2021/03/06 01:14:07;;;;;;;19.83;3.38;;;0.80;99.90;;;;;;5071280;28;20040;-83
2021/03/06 01:16:33;;;;;;;16.73;2.13;;;0.80;99.90;;;;;;5074554;28;20048;-83
2021/03/06 01:18:59;;;;;;;9.15;1.77;;;0.80;99.90;;;;;;5110430;28;20054;-83
2021/03/06 01:21:24;;;;;;;18.35;2.33;;;0.90;99.90;;;;;;5074602;28;20040;-85
2021/03/06 01:23:50;;;;;;;12.57;2.00;;;0.90;99.90;;;;;;5086603;28;20505;-83
2021/03/06 01:26:16;;;;;;;12.95;2.33;;;1.00;99.90;;;;;;5086792;28;20092;-83
2021/03/06 01:28:42;;;;;;;11.50;2.10;;;1.00;99.90;;;;;;5083591;28;20606;-83
2021/03/06 01:31:07;;;;;;;14.68;2.30;;;1.00;99.90;;;;;;5055710;28;20044;-82
2021/03/06 01:33:33;;;;;;;11.02;2.38;;;1.00;99.90;;;;;;5090198;28;20580;-82
2021/03/06 01:35:59;;;;;;;20.27;2.20;;;1.00;99.90;;;;;;5101893;28;20032;-82
2021/03/06 01:38:25;;;;;;;14.35;2.42;;;1.00;99.90;;;;;;5091142;28;20040;-85
2021/03/06 01:40:51;;;;;;;11.35;2.35;;;1.00;99.90;;;;;;5075182;28;20407;-83
2021/03/06 01:43:17;;;;;;;9.82;2.72;;;1.00;99.90;;;;;;5091946;28;20039;-83
2021/03/06 01:45:45;;;;;;;13.85;3.17;;;1.00;99.90;;;;;;5067821;28;20115;-84
2021/03/06 01:48:11;;;;;;;27.65;2.50;;;1.00;99.90;;;;;;5103325;28;20050;-84
2021/03/06 01:50:39;;;;;;;11.00;2.17;;;1.00;99.90;;;;;;5109005;28;20040;-83
2021/03/06 01:53:08;;;;;;;15.70;3.08;;;1.00;99.90;;;;;;5109773;28;20043;-83
2021/03/06 01:55:37;;;;;;;20.90;3.85;;;1.00;99.90;;;;;;5101956;28;20041;-82
2021/03/06 01:58:04;;;;;;;24.05;3.60;;;1.00;99.90;;;;;;5110587;28;20039;-83
2021/03/06 02:00:32;;;;;;;13.43;2.70;;;1.00;99.90;;;;;;5093278;28;20104;-83
2021/03/06 02:02:59;;;;;;;22.30;2.60;;;1.10;99.90;;;;;;5096546;28;20070;-82
2021/03/06 02:05:25;;;;;;;15.30;2.45;;;1.10;99.90;;;;;;5074493;28;20051;-87
2021/03/06 02:07:51;;;;;;;19.27;2.35;;;1.20;99.90;;;;;;5074303;28;20047;-84
2021/03/06 02:10:25;;;;;;;18.17;4.30;;;1.20;99.90;;;;;;5090979;28;20077;-83
2021/03/06 02:13:02;;;;;;;20.50;2.88;;;1.20;99.90;;;;;;5090965;28;20126;-83
2021/03/06 02:16:05;;;;;;;17.90;2.47;;;1.20;99.90;;;;;;5109504;28;20105;-85
2021/03/06 02:18:57;;;;;;;21.67;3.03;;;1.20;99.90;;;;;;5099377;28;20043;-82
2021/03/06 02:21:29;;;;;;;7.70;2.00;;;1.20;99.90;;;;;;5081293;28;20127;-83
2021/03/06 02:24:13;;;;;;;11.57;2.67;;;1.20;99.90;;;;;;5085811;28;20394;-83
2021/03/06 02:27:16;;;;;;;9.55;2.17;;;1.30;99.90;;;;;;5070530;28;20101;-83
2021/03/06 02:29:53;;;;;;;16.67;2.30;;;1.30;99.90;;;;;;5106830;28;20043;-83
2021/03/06 02:32:21;;;;;;;13.30;2.17;;;1.40;99.90;;;;;;5089386;28;20119;-83
2021/03/06 02:34:55;;;;;;;13.75;2.15;;;1.40;99.90;;;;;;5108293;28;20149;-83
2021/03/06 02:37:25;;;;;;;14.30;2.22;;;1.50;99.90;;;;;;5110783;28;20032;-83
2021/03/06 02:39:55;;;;;;;11.93;2.20;;;1.50;99.90;;;;;;5108988;28;20498;-83
2021/03/06 02:42:24;;;;;;;10.25;2.28;;;1.60;99.90;;;;;;5107497;28;20042;-84
2021/03/06 02:44:52;;;;;;;8.55;1.85;;;1.60;99.90;;;;;;5108393;28;20051;-84
2021/03/06 02:47:19;;;;;;;13.30;2.13;;;1.60;99.90;;;;;;5090955;28;20051;-84
2021/03/06 02:49:56;;;;;;;14.90;2.42;;;1.60;99.90;;;;;;5108629;28;20071;-84
2021/03/06 02:52:22;;;;;;;13.48;1.80;;;1.70;99.90;;;;;;5070729;28;20040;-84
2021/03/06 02:54:50;;;;;;;12.20;1.80;;;1.70;99.90;;;;;;5106432;28;20032;-85
2021/03/06 02:57:40;;;;;;;10.98;1.70;;;1.70;99.90;;;;;;5090667;28;20471;-84
2021/03/06 03:00:30;;;;;;;15.32;2.83;;;1.70;99.90;;;;;;5090927;28;20502;-84
2021/03/06 03:03:22;;;;;;;9.80;1.87;;;1.70;99.90;;;;;;5106283;28;20040;-85
2021/03/06 03:06:07;;;;;;;10.48;2.03;;;1.70;99.90;;;;;;5102797;28;20066;-84
2021/03/06 03:08:41;;;;;;;14.43;2.85;;;1.70;99.90;;;;;;5107425;28;20038;-87
2021/03/06 03:11:11;;;;;;;10.20;2.10;;;1.60;99.90;;;;;;5084909;28;20035;-86
2021/03/06 03:13:54;;;;;;;11.20;1.30;;;1.60;99.90;;;;;;5105339;28;20514;-84
2021/03/06 03:16:43;;;;;;;20.52;2.00;;;1.70;99.90;;;;;;5096254;28;20517;-84
2021/03/06 03:19:34;;;;;;;5.18;1.60;;;1.70;99.90;;;;;;5104922;28;20035;-84
2021/03/06 03:22:04;;;;;;;6.55;1.85;;;1.70;99.90;;;;;;5088192;28;20148;-84
2021/03/06 03:24:35;;;;;;;9.13;1.42;;;1.70;99.90;;;;;;5103101;28;20522;-85
2021/03/06 03:27:06;;;;;;;11.60;2.00;;;1.70;99.90;;;;;;5091596;28;20044;-84
2021/03/06 03:29:32;;;;;;;11.65;1.65;;;1.70;99.90;;;;;;5108235;28;20032;-87
2021/03/06 03:31:59;;;;;;;12.65;2.10;;;1.70;99.90;;;;;;5049571;28;20571;-85
2021/03/06 03:34:26;;;;;;;7.93;1.70;;;1.80;99.90;;;;;;5071340;28;20039;-84
2021/03/06 03:36:53;;;;;;;13.63;1.83;;;1.80;99.90;;;;;;5069233;28;20729;-84
2021/03/06 03:39:20;;;;;;;5.38;1.88;;;1.80;99.90;;;;;;5086344;28;20036;-86
2021/03/06 03:41:46;;;;;;;11.45;1.55;;;1.90;99.90;;;;;;5070337;28;20040;-85
2021/03/06 03:44:14;;;;;;;9.45;2.28;;;1.80;99.90;;;;;;5077391;28;20548;-84
2021/03/06 03:46:41;;;;;;;14.70;2.15;;;1.80;99.90;;;;;;5092852;28;20072;-84
2021/03/06 03:49:14;;;;;;;8.70;1.77;;;1.90;99.90;;;;;;5083586;28;20040;-85
2021/03/06 03:51:41;;;;;;;14.02;1.70;;;1.80;99.90;;;;;;5105087;28;20036;-85
2021/03/06 03:54:07;;;;;;;12.07;1.77;;;1.80;99.90;;;;;;5076956;28;20056;-85
2021/03/06 03:56:34;;;;;;;9.20;1.60;;;1.90;99.90;;;;;;5029272;28;20062;-88
2021/03/06 03:59:01;;;;;;;11.68;1.83;;;1.90;99.90;;;;;;5075656;28;20122;-86
2021/03/06 04:01:26;;;;;;;14.52;1.80;;;1.80;99.90;;;;;;5091323;28;20380;-85
2021/03/06 04:03:52;;;;;;;13.77;1.58;;;1.90;99.90;;;;;;5073469;28;20042;-86
2021/03/06 04:06:18;;;;;;;9.73;1.90;;;1.80;99.90;;;;;;5076526;28;20054;-86
2021/03/06 04:08:44;;;;;;;10.27;1.42;;;1.90;99.90;;;;;;5070323;28;20534;-86
2021/03/06 04:11:09;;;;;;;5.45;1.45;;;1.80;99.90;;;;;;5094044;28;20506;-86
2021/03/06 04:13:35;;;;;;;10.02;1.50;;;1.80;99.90;;;;;;5076385;28;20039;-89
2021/03/06 04:16:01;;;;;;;11.82;1.98;;;1.80;99.90;;;;;;5051535;28;20541;-87
2021/03/06 04:18:27;;;;;;;15.52;1.80;;;1.90;99.90;;;;;;5093650;28;20407;-85
2021/03/06 04:20:52;;;;;;;13.63;1.90;;;1.90;99.90;;;;;;5059701;28;20483;-86
2021/03/06 04:23:18;;;;;;;10.20;1.90;;;1.90;99.90;;;;;;5077484;28;20131;-87
2021/03/06 04:25:44;;;;;;;14.75;1.90;;;2.00;99.90;;;;;;5093510;28;20047;-85
2021/03/06 04:28:10;;;;;;;23.67;2.25;;;2.10;99.90;;;;;;5076302;28;20044;-84
2021/03/06 04:30:36;;;;;;;5.35;1.42;;;2.10;99.90;;;;;;5093022;28;20501;-85
2021/03/06 04:33:02;;;;;;;11.10;2.38;;;2.10;99.90;;;;;;5109834;28;20067;-84
2021/03/06 04:35:27;;;;;;;10.00;1.95;;;2.20;99.90;;;;;;5079860;28;20059;-85
2021/03/06 04:37:53;;;;;;;14.85;2.00;;;2.30;99.90;;;;;;5079969;28;20055;-84
2021/03/06 04:40:19;;;;;;;19.73;2.38;;;2.20;99.90;;;;;;5081492;28;20039;-84
2021/03/06 04:42:45;;;;;;;14.68;3.05;;;2.30;99.90;;;;;;5092782;28;20039;-84
2021/03/06 04:45:11;;;;;;;16.40;2.35;;;2.40;99.90;;;;;;5076314;28;20067;-86
2021/03/06 04:47:42;;;;;;;13.77;2.00;;;2.40;99.90;;;;;;5092728;28;20036;-84
2021/03/06 04:50:09;;;;;;;9.93;2.95;;;2.40;99.90;;;;;;5093161;28;20035;-84
2021/03/06 04:52:35;;;;;;;11.50;2.20;;;2.30;99.90;;;;;;5111294;28;20048;-84
2021/03/06 04:55:00;;;;;;;13.30;2.15;;;2.30;99.90;;;;;;5075642;28;20659;-84
2021/03/06 04:57:27;;;;;;;22.23;2.95;;;2.20;99.90;;;;;;5075767;28;20040;-84
2021/03/06 04:59:52;;;;;;;11.80;1.88;;;2.20;99.90;;;;;;5059024;28;20058;-85
2021/03/06 05:02:18;;;;;;;19.17;2.20;;;2.20;99.90;;;;;;5067033;28;20048;-85
2021/03/06 05:04:44;;;;;;;14.38;2.00;;;2.20;99.90;;;;;;5103691;28;20051;-86
2021/03/06 05:07:10;;;;;;;9.35;1.73;;;2.20;99.90;;;;;;5105696;28;20557;-84
2021/03/06 05:09:35;;;;;;;34.65;4.05;;;2.30;99.90;;;;;;5076397;28;20040;-84
2021/03/06 05:12:01;;;;;;;15.13;2.58;;;2.40;99.90;;;;;;5092249;28;20400;-85
2021/03/06 05:14:27;;;;;;;7.82;1.98;;;2.40;99.90;;;;;;5056013;28;20433;-85
2021/03/06 05:16:53;;;;;;;10.20;1.60;;;2.40;99.90;;;;;;5082095;28;20055;-84
2021/03/06 05:19:19;;;;;;;15.32;1.90;;;2.40;99.90;;;;;;5110674;28;20476;-87
2021/03/06 05:21:44;;;;;;;11.75;1.83;;;2.40;99.90;;;;;;5092767;28;20036;-89
2021/03/06 05:24:10;;;;;;;20.92;2.30;;;2.40;99.90;;;;;;5093006;28;20047;-86
2021/03/06 05:26:36;;;;;;;11.73;2.30;;;2.30;99.90;;;;;;5111332;28;20043;-83
2021/03/06 05:29:02;;;;;;;15.50;3.53;;;2.40;99.90;;;;;;5109923;28;20039;-83
2021/03/06 05:31:28;;;;;;;15.27;3.05;;;2.50;99.90;;;;;;5091751;28;20043;-84
2021/03/06 05:33:54;;;;;;;19.58;2.55;;;2.50;99.90;;;;;;5084133;28;20155;-84
2021/03/06 05:36:20;;;;;;;17.42;1.85;;;2.50;99.90;;;;;;5056352;28;20118;-84
2021/03/06 05:38:46;;;;;;;20.55;3.20;;;2.60;99.90;;;;;;5072053;28;20472;-89
2021/03/06 05:41:12;;;;;;;17.73;3.85;;;2.60;99.90;;;;;;5068606;28;20082;-84
2021/03/06 05:43:38;;;;;;;15.30;2.97;;;2.50;99.90;;;;;;5092500;28;20059;-84
2021/03/06 05:46:04;;;;;;;21.80;2.70;;;2.50;99.90;;;;;;5091816;28;20267;-84
2021/03/06 05:48:30;;;;;;;15.98;2.83;;;2.50;99.90;;;;;;5071040;28;20441;-83
2021/03/06 05:50:56;;;;;;;17.42;2.28;;;2.50;99.90;;;;;;5101071;28;20040;-84
2021/03/06 05:53:24;;;;;;;19.42;2.60;;;2.40;99.90;;;;;;5107396;28;20059;-83
2021/03/06 05:55:53;;;;;;;10.77;1.92;;;2.50;99.90;;;;;;5071215;28;20044;-84
2021/03/06 05:58:21;;;;;;;8.02;1.75;;;2.50;99.90;;;;;;5106532;28;20044;-84
2021/03/06 06:00:47;;;;;;;12.70;2.67;;;2.40;99.90;;;;;;5098092;28;20490;-88
2021/03/06 06:03:17;;;;;;;15.55;2.55;;;2.30;99.90;;;;;;5055954;28;20054;-84
2021/03/06 06:05:43;;;;;;;11.80;2.17;;;2.10;99.90;;;;;;5110199;28;20044;-83
2021/03/06 06:08:08;;;;;;;22.27;2.90;;;2.10;99.90;;;;;;5109019;28;20043;-83
2021/03/06 06:10:35;;;;;;;19.25;3.05;;;2.00;99.90;;;;;;5090542;28;20062;-84
2021/03/06 06:13:01;;;;;;;9.13;2.30;;;1.90;99.90;;;;;;5091100;28;20479;-83
2021/03/06 06:15:27;;;;;;;13.23;2.75;;;1.90;99.90;;;;;;5091748;28;20047;-83
2021/03/06 06:17:54;;;;;;;11.00;2.58;;;1.80;99.90;;;;;;5090790;28;20051;-84
2021/03/06 06:20:22;;;;;;;20.20;2.40;;;1.80;99.90;;;;;;5109390;28;20035;-84
2021/03/06 06:22:48;;;;;;;12.77;2.53;;;1.90;99.90;;;;;;5074843;28;20433;-87
2021/03/06 06:25:31;;;;;;;9.88;2.08;;;1.90;99.90;;;;;;5074020;28;20043;-83
2021/03/06 06:28:01;;;;;;;13.07;3.08;;;1.90;99.90;;;;;;5108598;28;20118;-84
2021/03/06 06:30:27;;;;;;;8.77;2.38;;;2.00;99.90;;;;;;5109534;28;20051;-86
2021/03/06 06:32:53;;;;;;;21.80;2.40;;;2.00;99.90;;;;;;5107658;28;20031;-83
2021/03/06 06:35:19;;;;;;;12.02;2.17;;;2.00;99.90;;;;;;5091005;28;20410;-85
2021/03/06 06:38:02;;;;;;;6.90;2.08;;;2.00;99.90;;;;;;5090729;28;20036;-83
2021/03/06 06:40:30;;;;;;;19.70;2.53;;;2.10;99.90;;;;;;5071302;28;20458;-84
2021/03/06 06:42:57;;;;;;;18.85;2.50;;;2.10;99.90;;;;;;5066941;28;20137;-84
2021/03/06 06:45:25;;;;;;;14.48;2.65;;;2.20;99.90;;;;;;5074972;28;20039;-84
2021/03/06 06:47:53;;;;;;;22.33;2.85;;;2.30;99.90;;;;;;5091365;28;20077;-88
2021/03/06 06:50:31;;;;;;;13.43;2.95;;;2.30;99.90;;;;;;5090830;28;20039;-84
2021/03/06 06:52:57;;;;;;;18.92;2.88;;;2.40;99.90;;;;;;5090677;28;20093;-84
2021/03/06 06:55:37;;;;;;;19.45;2.63;;;2.40;99.90;;;;;;5054840;28;20497;-84
2021/03/06 06:58:03;;;;;;;14.35;2.47;;;2.40;99.90;;;;;;5103389;28;20054;-86
2021/03/06 07:00:31;;;;;;;14.25;2.58;;;2.50;99.90;;;;;;5088553;28;20046;-83
2021/03/06 07:02:59;;;;;;;16.65;2.70;;;2.60;99.90;;;;;;5090086;28;20066;-84
2021/03/06 07:05:33;;;;;;;13.80;2.50;;;2.60;99.90;;;;;;5089951;28;20042;-84
2021/03/06 07:08:04;;;;;;;18.95;2.97;;;2.70;99.90;;;;;;5112311;28;20108;-85
2021/03/06 07:10:35;;;;;;;9.82;2.00;;;2.70;99.90;;;;;;5093958;28;20118;-84
2021/03/06 07:13:07;;;;;;;16.33;2.78;;;2.70;99.90;;;;;;5089757;28;20119;-83
2021/03/06 07:15:33;;;;;;;16.23;2.60;;;2.80;99.90;;;;;;5082727;28;20117;-84
2021/03/06 07:18:01;;;;;;;13.20;2.75;;;2.80;99.90;;;;;;5112095;28;20499;-85
2021/03/06 07:20:30;;;;;;;18.48;2.63;;;2.90;99.90;;;;;;5094568;28;20043;-87
2021/03/06 07:22:59;;;;;;;24.80;3.75;;;2.80;99.90;;;;;;5105413;28;20036;-85
2021/03/06 07:25:26;;;;;;;11.38;2.50;;;2.90;99.90;;;;;;5093203;28;20608;-84
2021/03/06 07:27:52;;;;;;;15.65;2.00;;;2.90;99.90;;;;;;5111939;28;20039;-87
2021/03/06 07:30:19;;;;;;;20.27;2.53;;;3.00;99.90;;;;;;5076953;28;20123;-84
2021/03/06 07:32:46;;;;;;;21.80;2.45;;;3.10;99.90;;;;;;5090282;28;20048;-83
2021/03/06 07:35:14;;;;;;;30.42;3.47;;;3.10;99.90;;;;;;5093449;28;20675;-85
2021/03/06 07:37:42;;;;;;;19.42;3.08;;;3.20;99.90;;;;;;5089586;28;20079;-86
2021/03/06 07:40:11;;;;;;;12.68;1.88;;;3.30;99.90;;;;;;5077306;28;20472;-85
2021/03/06 07:42:54;;;;;;;12.75;2.17;;;3.30;99.90;;;;;;5092185;28;20474;-84
2021/03/06 07:45:22;;;;;;;17.02;2.63;;;3.30;99.90;;;;;;5103058;28;20054;-84
2021/03/06 07:47:52;;;;;;;11.25;2.20;;;3.40;99.90;;;;;;5077238;28;20047;-84
2021/03/06 07:50:25;;;;;;;14.82;2.78;;;3.40;99.90;;;;;;5111589;28;20063;-85
2021/03/06 07:52:52;;;;;;;21.00;2.40;;;3.40;99.90;;;;;;5115284;28;20079;-87
2021/03/06 07:55:18;;;;;;;19.08;2.30;;;3.40;99.90;;;;;;5096301;28;20039;-84
2021/03/06 07:58:19;;;;;;;19.73;3.03;;;3.50;99.90;;;;;;5097806;28;20131;-84
2021/03/06 08:00:48;;;;;;;16.55;3.85;;;3.50;99.90;;;;;;5082176;28;20032;-84
2021/03/06 08:05:55;;;;;;;;;;;3.60;99.90;;;;;;5110252;28;20422;-88
2021/03/06 08:08:33;;;;;;;13.00;2.42;;;3.60;99.90;;;;;;5061732;28;19919;-84
2021/03/06 08:11:09;;;;;;;14.18;2.20;;;3.70;99.90;;;;;;5092017;28;20044;-84
2021/03/06 08:13:48;;;;;;;10.38;1.70;;;3.70;99.90;;;;;;5111005;28;20054;-86
2021/03/06 08:16:28;;;;;;;12.45;1.48;;;3.80;99.90;;;;;;5110606;28;20834;-82
2021/03/06 08:18:56;;;;;;;;;;;3.80;99.90;;;;;;5087247;28;20064;-86
2021/03/06 08:21:30;;;;;;;11.25;2.10;;;3.80;99.90;;;;;;5090332;28;19965;-82
2021/03/06 08:24:24;;;;;;;8.00;1.75;;;3.90;99.90;;;;;;5107572;28;20487;-89
2021/03/06 08:27:01;;;;;;;7.30;1.75;;;3.80;99.90;;;;;;5082361;28;20067;-84
2021/03/06 08:29:27;;;;;;;7.55;1.67;;;3.90;99.90;;;;;;5085136;28;20039;-86
2021/03/06 08:32:04;;;;;;;7.75;1.17;;;3.90;99.90;;;;;;5093028;28;20042;-85
2021/03/06 08:34:47;;;;;;;11.77;2.28;;;3.90;99.90;;;;;;5084840;28;20036;-85
2021/03/06 08:39:43;;;;;;;12.25;2.13;;;4.00;99.90;;;;;;5101852;28;20089;-85
2021/03/06 08:42:10;;;;;;;9.88;2.30;;;4.10;99.90;;;;;;5086998;28;20067;-85
2021/03/06 08:44:36;;;;;;;9.38;1.80;;;4.10;99.90;;;;;;5063022;28;20044;-86
2021/03/06 08:47:03;;;;;;;7.95;1.48;;;4.20;99.90;;;;;;5110614;28;20035;-85
2021/03/06 08:49:31;;;;;;;13.00;1.95;;;4.20;99.90;;;;;;5076914;28;20066;-84
2021/03/06 08:51:57;;;;;;;7.82;1.58;;;4.30;99.90;;;;;;5107967;28;20548;-87
2021/03/06 08:54:23;;;;;;;8.88;1.50;;;4.30;99.90;;;;;;5093321;28;20081;-87
2021/03/06 08:56:50;;;;;;;7.10;1.38;;;4.40;99.90;;;;;;5107633;28;20047;-86
2021/03/06 08:59:16;;;;;;;20.73;2.00;;;4.50;99.90;;;;;;5107408;28;20560;-85
2021/03/06 09:01:43;;;;;;;9.05;2.13;;;4.50;99.90;;;;;;5107655;28;20039;-85
2021/03/06 09:04:10;;;;;;;11.75;1.60;;;4.50;99.90;;;;;;5087944;28;20405;-88
2021/03/06 09:06:37;;;;;;;9.15;1.85;;;4.60;99.90;;;;;;5073051;28;20040;-86
2021/03/06 09:09:09;;;;;;;6.10;1.23;;;4.60;99.90;;;;;;5103686;28;20039;-86
2021/03/06 09:11:54;;;;;;;6.40;1.50;;;4.70;99.90;;;;;;5112036;28;20629;-87
2021/03/06 09:14:19;;;;;;;8.05;1.83;;;4.80;99.90;;;;;;5097381;28;20063;-86
2021/03/06 09:16:49;;;;;;;12.57;1.65;;;4.90;99.90;;;;;;5071677;28;20129;-86
2021/03/06 09:19:27;;;;;;;12.88;1.45;;;5.00;99.90;;;;;;5089418;28;20509;-86
2021/03/06 09:21:59;;;;;;;5.95;0.88;;;5.00;99.90;;;;;;5098316;28;20085;-86
2021/03/06 09:24:41;;;;;;;12.68;1.38;;;5.10;99.90;;;;;;5092995;28;20052;-85
2021/03/06 09:27:07;;;;;;;8.43;1.17;;;5.20;99.90;;;;;;5110221;28;20040;-85
2021/03/06 09:29:32;;;;;;;6.68;0.90;;;5.20;99.90;;;;;;5089090;28;20032;-87
2021/03/06 09:31:58;;;;;;;6.40;1.55;;;5.20;99.90;;;;;;5072455;28;20499;-86
2021/03/06 09:34:28;;;;;;;10.57;2.08;;;5.30;99.90;;;;;;5065495;28;20051;-86
2021/03/06 09:36:54;;;;;;;8.45;1.70;;;5.30;99.90;;;;;;5109545;28;20051;-86
2021/03/06 09:39:24;;;;;;;4.22;1.10;;;5.40;99.90;;;;;;5080861;28;20175;-85
2021/03/06 09:41:50;;;;;;;4.93;1.05;;;5.40;99.90;;;;;;5068704;28;20043;-84
2021/03/06 09:44:17;;;;;;;6.70;1.40;;;5.50;99.90;;;;;;5091430;28;20523;-84
2021/03/06 09:46:43;;;;;;;7.57;1.20;;;5.60;99.90;;;;;;5108603;28;20047;-85
2021/03/06 09:49:14;;;;;;;9.52;1.60;;;5.60;99.90;;;;;;5092884;28;20039;-85
2021/03/06 09:51:46;;;;;;;7.25;0.95;;;5.70;99.90;;;;;;5086775;28;20051;-85
2021/03/06 09:54:17;;;;;;;9.48;2.17;;;5.70;99.90;;;;;;5101854;28;20256;-84
2021/03/06 09:56:46;;;;;;;;;;;5.70;99.90;;;;;;5074322;28;20036;-88
2021/03/06 09:59:12;;;;;;;7.72;1.05;;;5.70;99.90;;;;;;5095317;28;19938;-84
2021/03/06 10:01:38;;;;;;;7.20;1.00;;;5.70;99.90;;;;;;5084605;28;20122;-84
2021/03/06 10:04:15;;;;;;;7.72;4.05;;;5.80;99.90;;;;;;5098324;28;20048;-90
2021/03/06 10:06:44;;;;;;;9.30;3.30;;;5.90;99.90;;;;;;5099335;28;20035;-84
2021/03/06 10:09:12;;;;;;;14.07;5.60;;;5.90;99.90;;;;;;5104476;28;20110;-85
2021/03/06 10:11:40;;;;;;;11.75;2.47;;;5.90;99.90;;;;;;5086794;28;20039;-86
2021/03/06 10:14:07;;;;;;;10.25;1.35;;;6.10;99.90;;;;;;5099113;28;20044;-90
2021/03/06 10:16:50;;;;;;;8.52;1.73;;;6.30;99.90;;;;;;5106028;28;20124;-85
2021/03/06 10:19:21;;;;;;;6.78;1.38;;;6.10;99.90;;;;;;5102109;28;20122;-85
2021/03/06 10:22:04;;;;;;;8.60;1.58;;;6.30;99.90;;;;;;5082058;28;20044;-84
2021/03/06 10:24:49;;;;;;;11.43;1.40;;;6.50;99.90;;;;;;5105907;28;20067;-85
2021/03/06 10:27:14;;;;;;;4.50;0.82;;;6.50;99.90;;;;;;5097164;28;20521;-85
2021/03/06 10:29:40;;;;;;;7.93;1.33;;;6.50;99.90;;;;;;5103039;28;20119;-87
2021/03/06 10:32:07;;;;;;;7.45;1.08;;;6.40;99.90;;;;;;5080462;28;20380;-86
2021/03/06 10:34:37;;;;;;;4.85;0.80;;;6.30;99.90;;;;;;5078139;28;20124;-82
2021/03/06 10:37:15;;;;;;;11.80;1.50;;;6.10;99.90;;;;;;5110620;28;20035;-83
2021/03/06 10:39:54;;;;;;;7.32;1.00;;;6.20;99.90;;;;;;5075444;28;20094;-83
2021/03/06 10:42:21;;;;;;;15.10;2.70;;;6.00;99.90;;;;;;5069018;28;20483;-84
2021/03/06 10:44:47;;;;;;;5.20;1.40;;;6.10;99.90;;;;;;5091771;28;20387;-82
2021/03/06 10:47:13;;;;;;;14.95;2.17;;;5.90;99.90;;;;;;5087967;28;20097;-82
2021/03/06 10:49:42;;;;;;;9.50;1.55;;;5.90;99.90;;;;;;5091040;28;20410;-83
2021/03/06 10:52:27;;;;;;;7.45;1.05;;;5.90;99.90;;;;;;5094503;28;20110;-86
2021/03/06 10:54:56;;;;;;;8.23;1.40;;;6.00;99.90;;;;;;5092837;28;20441;-84
2021/03/06 10:57:22;;;;;;;10.93;1.35;;;6.00;99.90;;;;;;5102522;28;20109;-83
2021/03/06 10:59:48;;;;;;;5.68;0.80;;;6.00;99.90;;;;;;5086024;28;20044;-84
2021/03/06 11:02:31;;;;;;;4.22;0.93;;;6.10;99.90;;;;;;5109911;28;20552;-83
2021/03/06 11:05:20;;;;;;;5.75;0.77;;;6.10;99.90;;;;;;5088857;28;20063;-86
2021/03/06 11:07:46;;;;;;;11.02;1.35;;;6.10;99.90;;;;;;5111012;28;20157;-85
2021/03/06 11:10:14;;;;;;;8.45;1.15;;;6.10;99.90;;;;;;5081117;28;20380;-87
2021/03/06 11:12:53;;;;;;;5.22;1.02;;;6.00;99.90;;;;;;5091788;28;20121;-84
2021/03/06 11:15:22;;;;;;;7.75;1.10;;;6.00;99.90;;;;;;5088555;28;20035;-84
2021/03/06 11:17:56;;;;;;;6.00;0.90;;;6.10;99.90;;;;;;5089410;28;20059;-86
2021/03/06 11:20:33;;;;;;;3.65;0.75;;;6.10;99.90;;;;;;5080841;28;20051;-87
2021/03/06 11:23:01;;;;;;;5.45;1.10;;;6.20;99.90;;;;;;5060378;28;20727;-85
2021/03/06 11:25:27;;;;;;;3.33;0.82;;;6.20;99.90;;;;;;5089602;28;20046;-86
2021/03/06 11:28:08;;;;;;;9.00;0.90;;;6.30;99.90;;;;;;5083374;28;20399;-85
2021/03/06 11:30:37;;;;;;;7.57;1.13;;;6.30;99.90;;;;;;5109825;28;20037;-86
2021/03/06 11:33:05;;;;;;;3.67;1.10;;;6.30;99.90;;;;;;5106698;28;20039;-85
2021/03/06 11:35:32;;;;;;;4.90;1.10;;;6.40;99.90;;;;;;5092725;28;20068;-86
2021/03/06 11:37:59;;;;;;;9.93;1.35;;;6.50;99.90;;;;;;5087403;28;20106;-85
2021/03/06 11:40:31;;;;;;;10.35;1.38;;;6.40;99.90;;;;;;5111086;28;20493;-85
2021/03/06 11:42:58;;;;;;;8.30;1.10;;;6.50;99.90;;;;;;5110867;28;20376;-85
2021/03/06 11:45:24;;;;;;;4.30;0.93;;;6.50;99.90;;;;;;5076036;28;20053;-85
2021/03/06 11:47:52;;;;;;;6.97;1.23;;;6.60;99.90;;;;;;5084048;28;20048;-85
2021/03/06 11:50:23;;;;;;;5.28;1.00;;;6.70;99.90;;;;;;5086640;28;20065;-90
2021/03/06 11:52:49;;;;;;;6.60;1.00;;;6.60;99.90;;;;;;5109424;28;20043;-86
2021/03/06 11:55:15;;;;;;;5.55;0.80;;;6.60;99.90;;;;;;5071674;28;20109;-88
2021/03/06 11:57:42;;;;;;;5.30;0.77;;;6.50;99.90;;;;;;5077298;28;20032;-84
2021/03/06 12:00:21;;;;;;;2.22;0.80;;;6.50;99.90;;;;;;5077653;28;20043;-85
2021/03/06 12:02:48;;;;;;;1.98;0.70;;;6.40;99.90;;;;;;5084150;28;20040;-86
2021/03/06 12:05:14;;;;;;;7.38;1.10;;;6.40;99.90;;;;;;5082242;28;20050;-85
2021/03/06 12:07:41;;;;;;;8.05;0.65;;;6.40;99.90;;;;;;5073945;28;20044;-85
2021/03/06 12:10:10;;;;;;;3.35;0.47;;;6.30;99.90;;;;;;5086810;28;20126;-85
2021/03/06 12:12:36;;;;;;;2.65;0.70;;;6.20;99.90;;;;;;5110888;28;20130;-88
2021/03/06 12:15:04;;;;;;;13.32;1.45;;;6.20;99.90;;;;;;5112271;28;20035;-86
2021/03/06 12:17:29;;;;;;;3.50;0.55;;;6.10;99.90;;;;;;5072458;28;20052;-85
2021/03/06 12:19:56;;;;;;;6.65;1.00;;;6.20;99.90;;;;;;5098469;28;20044;-84
2021/03/06 12:22:22;;;;;;;9.40;1.08;;;6.20;99.90;;;;;;5056098;28;20102;-84
2021/03/06 12:24:47;;;;;;;7.65;0.82;;;6.10;99.90;;;;;;5076717;28;20483;-85
2021/03/06 12:27:14;;;;;;;7.30;0.82;;;6.20;99.90;;;;;;5100241;28;20122;-86
2021/03/06 12:29:40;;;;;;;5.38;1.60;;;6.20;99.90;;;;;;5077487;28;20043;-86
2021/03/06 12:32:06;;;;;;;7.15;1.05;;;6.10;99.90;;;;;;5071719;28;20141;-86
2021/03/06 12:34:32;;;;;;;3.72;0.57;;;6.20;99.90;;;;;;5077119;28;20138;-86
2021/03/06 12:36:57;;;;;;;9.02;0.90;;;6.20;99.90;;;;;;5094538;28;20127;-86
2021/03/06 12:39:23;;;;;;;2.85;0.52;;;6.10;99.90;;;;;;5093501;28;20047;-89
2021/03/06 12:41:50;;;;;;;1.55;0.55;;;6.30;99.90;;;;;;5093292;28;20096;-86
2021/03/06 12:44:17;;;;;;;4.82;0.95;;;6.30;99.90;;;;;;5094491;28;20054;-85
2021/03/06 12:46:43;;;;;;;4.22;0.57;;;6.30;99.90;;;;;;5080972;28;20035;-86
2021/03/06 12:49:11;;;;;;;12.70;1.13;;;6.40;99.90;;;;;;5067048;28;20395;-84
2021/03/06 12:51:37;;;;;;;5.20;0.95;;;6.30;99.90;;;;;;5102932;28;20044;-85
2021/03/06 12:54:03;;;;;;;7.45;0.73;;;6.30;99.90;;;;;;5081090;28;20491;-86
2021/03/06 12:56:29;;;;;;;9.27;0.85;;;6.40;99.90;;;;;;5056911;28;20044;-86
2021/03/06 12:58:55;;;;;;;2.75;0.93;;;6.50;99.90;;;;;;5051859;28;20051;-85
2021/03/06 13:01:20;;;;;;;4.85;0.80;;;6.40;99.90;;;;;;5086179;28;20048;-86
2021/03/06 13:03:46;;;;;;;5.57;0.80;;;6.50;99.90;;;;;;5072351;28;20048;-87
2021/03/06 13:06:13;;;;;;;6.43;0.90;;;6.40;99.90;;;;;;5073243;28;20055;-87
2021/03/06 13:08:39;;;;;;;6.90;1.20;;;6.40;99.90;;;;;;5082609;28;20086;-86